Terminal Aerodrome Forecast
Issued by NWS

Home | Current Version | Previous Version | Graphics & Text | Print | Product List | Glossary On
Versions: 1 2 3 4 5 6 7 8 9 10 11 12 13 14 15 16 17 18 19 20 21 22 23 24
279
FTUS43 KBIS 120954 AAA
TAFMOT
TAF AMD
KMOT 120954Z 1210/1306 23012KT P6SM SCT080
     FM121800 26009KT P6SM SCT250
     FM130300 27010KT P6SM BKN200 WS020/32040KT
     FM130500 29020G30KT P6SM BKN150=

USA.gov is the U.S. government's official web portal to all federal, state and local government web resources and services.